Hlavní strana
METAR-TAF:

METAR-TAF

Letiště :

New Bern, Severní Karolína, Spojené státy americké

zeměpisná šířka: 35-04-03N, zeměpisná délka: 077-02-50W, výška: 5 m

Aktuální stav počasí

Zpráva byla vytvořena před 56 minutami, v 12:54 UTC
Bezvětří
Teplota 7°C
Vlhkost vzduchu 100%
Tlak 1029 hPa
Viditelnost: 16.1 km
Jasno

METAR: KEWN 251254Z 00000KT 10SM CLR 07/07 A3040 RMK AO2 SLP293 T00720067

Čas: 08:50 (13:50 UTC)

Předpověď počasí

Zpráva byla vytvořena před 2 hodinami a 26 minutami, v 11:24 UTC
Předpověď platná od 25 v 12 UTC do 26 v 12 UTC
vítr z různých směrů 5 kt
Viditelnost: 10 km
Polojasno ve výšce 4000 ft
Oblačno až skoro zataženo ve výšce 20000 ft
Od 25 v 1700 UTC
Jihojihovýchodní vítr 6 kt
Viditelnost: 10 km
Oblačno až skoro zataženo ve výšce 4500 ft
Od 26 v 0700 UTC
Jižní vítr 6 kt
Viditelnost: 10 km
Oblačno až skoro zataženo ve výšce 3500 ft
přeháňky v blízkosti

TAF: KEWN 251124Z 2512/2612 VRB05KT P6SM SCT040 BKN200 FM251700 16006KT P6SM BKN045 FM260700 18006KT P6SM VCSH BKN035

Stav a předpovědi počasí z více než 4 000 letišť (zprávy METAR a TAF).

Červené a žluté tečky na mapě představují dostupné meteorologické stanice.

Když kurzor umístíte na tečku, zobrazí se název stanice.

Pak kliknutím zobrazíte stav a předpověď počasí.

Chcete-li změnit mapu, kliknutím na zelené tlačítko se znaménkem +mapu přiblížíte, kliknutím na zelené tlačítko se znaménkem – mapu oddálíte a kliknutím na zelené šipky přejdete na sousední mapy.


METAR-TAF: